createdAt,value
2019-02-23T00:01:36.694Z,0.98
2019-02-23T00:04:10.205Z,1.02
2019-02-23T00:06:55.383Z,1.24
2019-02-23T00:09:41.476Z,1.24
2019-02-23T00:12:16.673Z,1.06
2019-02-23T00:14:50.129Z,1.02
2019-02-23T00:17:33.672Z,1.03
2019-02-23T00:20:07.012Z,1.04
2019-02-23T00:22:40.563Z,0.97
2019-02-23T00:25:14.064Z,1.02
2019-02-23T00:27:48.243Z,0.98
2019-02-23T00:30:21.372Z,1.04
2019-02-23T00:32:55.554Z,0.98
2019-02-23T00:35:29.316Z,0.92
2019-02-23T00:38:03.239Z,1.06
2019-02-23T00:40:48.229Z,1.03
2019-02-23T00:43:23.006Z,0.97
2019-02-23T00:45:56.667Z,1.01
2019-02-23T00:48:30.987Z,1.01
2019-02-23T00:51:05.919Z,1.04
2019-02-23T00:53:39.457Z,0.98
2019-02-23T00:56:13.140Z,0.99
2019-02-23T00:58:48.090Z,0.93
2019-02-23T01:01:22.235Z,0.79
2019-02-23T01:04:05.807Z,0.84
2019-02-23T01:06:39.403Z,0.86
2019-02-23T01:09:13.248Z,0.95
2019-02-23T01:11:58.348Z,0.97
2019-02-23T01:14:32.290Z,0.93
2019-02-23T01:17:14.721Z,0.94
2019-02-23T01:19:48.274Z,0.91
2019-02-23T01:22:21.391Z,0.81
2019-02-23T01:24:55.226Z,0.81
2019-02-23T01:27:28.495Z,0.70
2019-02-23T01:30:01.986Z,0.73
2019-02-23T01:32:36.894Z,0.69
2019-02-23T01:35:19.223Z,0.71
2019-02-23T01:37:52.746Z,0.70
2019-02-23T01:40:25.942Z,0.77
2019-02-23T01:42:59.046Z,0.75
2019-02-23T01:45:42.629Z,0.81
2019-02-23T01:48:16.033Z,0.79
2019-02-23T01:50:49.186Z,0.74
2019-02-23T01:53:24.075Z,0.77
2019-02-23T01:56:06.152Z,0.85
2019-02-23T01:58:39.754Z,0.84
2019-02-23T02:01:15.625Z,0.86
2019-02-23T02:03:59.118Z,0.95
2019-02-23T02:06:33.660Z,0.97
2019-02-23T02:09:07.282Z,1.00
2019-02-23T02:11:40.815Z,0.98
2019-02-23T02:14:14.291Z,0.99
2019-02-23T02:16:47.904Z,0.98
2019-02-23T02:19:21.477Z,1.03
2019-02-23T02:21:55.807Z,1.01
2019-02-23T02:24:28.970Z,0.96
2019-02-23T02:27:02.776Z,1.01
2019-02-23T02:29:36.588Z,0.97
2019-02-23T02:32:10.124Z,0.94
2019-02-23T02:34:43.612Z,0.90
2019-02-23T02:37:18.173Z,0.88
2019-02-23T02:40:00.489Z,0.86
2019-02-23T02:42:34.651Z,0.80
2019-02-23T02:45:18.954Z,0.78
2019-02-23T02:47:53.023Z,0.70
2019-02-23T02:50:41.766Z,0.77
2019-02-23T02:53:15.219Z,0.72
2019-02-23T02:55:48.623Z,0.64
2019-02-23T02:58:22.124Z,0.63
2019-02-23T03:00:57.184Z,0.67
2019-02-23T03:03:30.314Z,0.61
2019-02-23T03:06:15.570Z,0.67
2019-02-23T03:08:49.436Z,0.54
2019-02-23T03:11:33.552Z,0.58
2019-02-23T03:14:07.129Z,0.50
2019-02-23T03:16:41.047Z,0.49
2019-02-23T03:19:24.522Z,0.44
2019-02-23T03:21:58.841Z,0.36
2019-02-23T03:24:32.031Z,0.37
2019-02-23T03:27:05.534Z,0.38
2019-02-23T03:29:39.418Z,0.39
2019-02-23T03:32:12.924Z,0.42
2019-02-23T03:34:46.615Z,0.60
2019-02-23T03:37:21.200Z,0.56
2019-02-23T03:39:54.985Z,0.51
2019-02-23T03:42:29.183Z,0.42
2019-02-23T03:45:02.936Z,0.40
2019-02-23T03:47:45.618Z,0.35
2019-02-23T03:50:19.162Z,0.27
2019-02-23T03:52:52.883Z,0.35
2019-02-23T03:55:26.635Z,0.31
2019-02-23T03:58:15.585Z,0.27
2019-02-23T04:00:57.944Z,0.21
2019-02-23T04:03:31.538Z,0.14
2019-02-23T04:06:04.992Z,0.13
2019-02-23T04:08:38.402Z,0.15
2019-02-23T04:11:11.933Z,0.02
2019-02-23T04:13:45.456Z,0.00
2019-02-23T04:16:18.943Z,0.06
2019-02-23T04:18:52.773Z,0.07
2019-02-23T04:21:26.434Z,-0.01
2019-02-23T04:24:00.211Z,-0.09
2019-02-23T04:26:34.018Z,-0.05
2019-02-23T04:29:07.531Z,-0.06
2019-02-23T04:31:40.975Z,-0.05
2019-02-23T04:34:14.514Z,-0.11
2019-02-23T04:36:48.068Z,-0.08
2019-02-23T04:39:21.886Z,-0.19
2019-02-23T04:41:55.476Z,-0.17
2019-02-23T04:44:29.987Z,-0.28
2019-02-23T04:47:03.886Z,-0.27
2019-02-23T04:49:37.424Z,-0.20
2019-02-23T04:52:10.864Z,-0.13
2019-02-23T04:54:44.318Z,-0.15
2019-02-23T04:57:26.566Z,-0.05
2019-02-23T05:00:00.388Z,-0.13
2019-02-23T05:02:42.886Z,-0.07
2019-02-23T05:05:16.289Z,-0.16
2019-02-23T05:07:50.165Z,-0.16
2019-02-23T05:10:23.963Z,-0.11
2019-02-23T05:13:06.575Z,-0.11
2019-02-23T05:15:40.543Z,-0.18
2019-02-23T05:18:24.574Z,-0.15
2019-02-23T05:20:58.231Z,-0.18
2019-02-23T05:23:31.693Z,-0.12
2019-02-23T05:26:04.922Z,-0.22
2019-02-23T05:28:38.300Z,-0.21
2019-02-23T05:31:11.810Z,-0.20
2019-02-23T05:33:45.948Z,-0.18
2019-02-23T05:36:19.561Z,-0.30
2019-02-23T05:38:52.938Z,-0.24
2019-02-23T05:41:26.403Z,-0.18
2019-02-23T05:43:59.845Z,-0.21
2019-02-23T05:46:33.925Z,-0.25
2019-02-23T05:49:07.611Z,-0.28
2019-02-23T05:51:41.337Z,-0.29
2019-02-23T05:54:15.376Z,-0.26
2019-02-23T05:56:58.181Z,-0.19
2019-02-23T05:59:43.107Z,-0.10
2019-02-23T06:02:16.225Z,-0.12
2019-02-23T06:04:49.801Z,-0.19
2019-02-23T06:07:23.293Z,-0.22
2019-02-23T06:09:57.387Z,-0.29
2019-02-23T06:12:30.554Z,-0.18
2019-02-23T06:15:04.233Z,-0.09
2019-02-23T06:17:38.621Z,-0.17
2019-02-23T06:20:21.161Z,-0.09
2019-02-23T06:22:55.448Z,-0.24
2019-02-23T06:25:37.580Z,-0.22
2019-02-23T06:28:13.999Z,-0.23
2019-02-23T06:30:48.079Z,-0.25
2019-02-23T06:33:31.902Z,-0.18
2019-02-23T06:36:06.197Z,-0.17
2019-02-23T06:38:54.668Z,-0.10
2019-02-23T06:41:38.190Z,-0.13
2019-02-23T06:44:12.720Z,-0.14
2019-02-23T06:46:46.853Z,-0.14
2019-02-23T06:49:20.435Z,-0.12
2019-02-23T06:52:04.099Z,-0.19
2019-02-23T06:54:29.404Z,-0.14
2019-02-23T06:57:03.133Z,-0.13
2019-02-23T06:59:37.686Z,-0.14
2019-02-23T07:02:11.125Z,-0.09
2019-02-23T07:04:45.168Z,-0.06
2019-02-23T07:07:18.673Z,-0.02
2019-02-23T07:09:52.398Z,0.04
2019-02-23T07:12:25.994Z,0.06
2019-02-23T07:14:59.100Z,0.09
2019-02-23T07:17:33.085Z,0.10
2019-02-23T07:20:06.489Z,0.19
2019-02-23T07:22:39.737Z,0.25
2019-02-23T07:25:13.175Z,0.28
2019-02-23T07:27:55.071Z,0.35
2019-02-23T07:30:28.329Z,0.36
2019-02-23T07:33:01.722Z,0.42
2019-02-23T07:35:35.011Z,0.43
2019-02-23T07:38:17.126Z,0.48
2019-02-23T07:40:50.548Z,0.49
2019-02-23T07:43:35.322Z,0.55
2019-02-23T07:46:18.613Z,0.54
2019-02-23T07:48:57.147Z,0.58
2019-02-23T07:51:30.317Z,0.60
2019-02-23T07:54:12.370Z,0.72
2019-02-23T07:56:45.947Z,0.70
2019-02-23T07:59:19.390Z,0.75
2019-02-23T08:01:52.236Z,0.84
2019-02-23T08:04:27.076Z,0.81
2019-02-23T08:07:02.191Z,0.90
2019-02-23T08:09:36.107Z,0.99
2019-02-23T08:12:08.777Z,1.04
2019-02-23T08:14:42.498Z,1.17
2019-02-23T08:17:26.878Z,1.33
2019-02-23T08:20:00.297Z,1.35
2019-02-23T08:22:37.290Z,1.37
2019-02-23T08:25:09.272Z,1.49
2019-02-23T08:27:43.094Z,1.56
2019-02-23T08:30:25.710Z,1.58
2019-02-23T08:32:59.631Z,1.59
2019-02-23T08:35:42.105Z,1.68
2019-02-23T08:38:16.391Z,1.75
2019-02-23T08:40:58.938Z,1.79
2019-02-23T08:43:44.347Z,1.63
2019-02-23T08:46:26.518Z,1.81
2019-02-23T08:49:00.701Z,1.87
2019-02-23T08:51:46.053Z,2.00
2019-02-23T08:54:19.296Z,2.04
2019-02-23T08:56:55.441Z,2.14
2019-02-23T08:59:38.188Z,2.30
2019-02-23T09:02:20.884Z,2.34
2019-02-23T09:05:03.541Z,2.39
2019-02-23T09:07:37.817Z,2.44
2019-02-23T09:10:19.752Z,2.65
2019-02-23T09:12:53.849Z,2.72
2019-02-23T09:15:36.517Z,2.76
2019-02-23T09:18:10.163Z,2.81
2019-02-23T09:20:44.767Z,2.89
2019-02-23T09:23:19.099Z,2.78
2019-02-23T09:26:02.313Z,2.81
2019-02-23T09:28:45.175Z,2.97
2019-02-23T09:31:27.673Z,3.08
2019-02-23T09:33:59.425Z,3.22
2019-02-23T09:36:32.709Z,3.28
2019-02-23T09:39:08.127Z,3.27
2019-02-23T09:41:40.749Z,3.14
2019-02-23T09:44:23.050Z,3.28
2019-02-23T09:46:57.615Z,3.27
2019-02-23T09:49:30.942Z,3.28
2019-02-23T09:52:13.107Z,3.43
2019-02-23T09:54:46.720Z,3.51
2019-02-23T09:57:20.434Z,3.64
2019-02-23T09:59:54.418Z,3.75
2019-02-23T10:02:26.332Z,3.76
2019-02-23T10:05:08.446Z,3.92
2019-02-23T10:07:42.058Z,3.85
2019-02-23T10:10:15.586Z,4.00
2019-02-23T10:12:48.237Z,4.06
2019-02-23T10:15:30.878Z,4.33
2019-02-23T10:18:04.622Z,4.45
2019-02-23T10:20:47.832Z,4.66
2019-02-23T10:23:32.634Z,4.85
2019-02-23T10:26:06.380Z,4.98
2019-02-23T10:28:50.213Z,5.29
2019-02-23T10:31:24.389Z,5.17
2019-02-23T10:33:57.864Z,5.29
2019-02-23T10:36:41.999Z,5.49
2019-02-23T10:39:24.179Z,5.44
2019-02-23T10:41:57.703Z,5.49
2019-02-23T10:44:29.853Z,5.56
2019-02-23T10:47:03.575Z,5.57
2019-02-23T10:49:37.373Z,5.60
2019-02-23T10:52:20.454Z,5.72
2019-02-23T10:55:03.571Z,5.63
2019-02-23T10:57:45.891Z,5.69
2019-02-23T11:00:21.172Z,5.73
2019-02-23T11:03:04.007Z,5.88
2019-02-23T11:05:37.020Z,5.94
2019-02-23T11:08:10.356Z,6.00
2019-02-23T11:10:44.074Z,6.05
2019-02-23T11:13:17.389Z,6.06
2019-02-23T11:15:50.701Z,6.16
2019-02-23T11:18:33.784Z,6.39
2019-02-23T11:21:06.913Z,6.39
2019-02-23T11:23:50.687Z,6.45
2019-02-23T11:26:23.237Z,6.44
2019-02-23T11:29:06.040Z,6.57
2019-02-23T11:31:48.654Z,6.58
2019-02-23T11:34:35.628Z,6.62
2019-02-23T11:37:24.145Z,6.78
2019-02-23T11:39:58.276Z,6.72
2019-02-23T11:42:40.782Z,6.99
2019-02-23T11:45:13.704Z,7.15
2019-02-23T11:47:48.088Z,7.20
2019-02-23T11:50:31.493Z,7.31
2019-02-23T11:53:04.824Z,7.32
2019-02-23T11:55:47.748Z,7.51
2019-02-23T11:58:22.178Z,7.59
2019-02-23T12:00:55.593Z,7.64
2019-02-23T12:03:29.441Z,7.88
2019-02-23T12:06:04.187Z,8.01
2019-02-23T12:08:37.673Z,8.19
2019-02-23T12:11:10.163Z,8.34
2019-02-23T12:13:44.587Z,8.49
2019-02-23T12:16:18.250Z,8.54
2019-02-23T12:19:03.481Z,8.47
2019-02-23T12:21:36.364Z,8.56
2019-02-23T12:24:09.956Z,8.48
2019-02-23T12:26:43.705Z,8.47
2019-02-23T12:29:27.221Z,8.73
2019-02-23T12:32:01.097Z,8.62
2019-02-23T12:34:34.882Z,8.79
2019-02-23T12:37:08.840Z,8.98
2019-02-23T12:39:42.688Z,9.06
2019-02-23T12:42:27.461Z,8.97
2019-02-23T12:45:10.049Z,8.96
2019-02-23T12:47:53.028Z,8.88
2019-02-23T12:50:25.998Z,8.85
2019-02-23T12:53:09.256Z,9.17
2019-02-23T12:55:51.723Z,9.42
2019-02-23T12:58:26.451Z,9.57
2019-02-23T13:00:59.715Z,9.62
2019-02-23T13:03:42.475Z,9.68
2019-02-23T13:06:31.209Z,9.82
2019-02-23T13:09:14.735Z,9.84
2019-02-23T13:12:03.720Z,9.87
2019-02-23T13:15:12.477Z,9.79
2019-02-23T13:18:02.863Z,9.95
2019-02-23T13:21:12.964Z,10.13
2019-02-23T13:24:28.689Z,10.14
2019-02-23T13:27:08.785Z,10.03
2019-02-23T13:30:31.410Z,10.24
2019-02-23T13:34:03.999Z,10.20
2019-02-23T13:37:12.522Z,10.34
2019-02-23T13:40:19.681Z,10.31
2019-02-23T13:43:28.704Z,10.35
2019-02-23T13:46:26.617Z,10.45
2019-02-23T13:49:41.436Z,10.53
2019-02-23T13:52:41.706Z,10.52
2019-02-23T13:55:51.239Z,10.67
2019-02-23T13:58:56.417Z,10.73
2019-02-23T14:02:22.672Z,10.78
2019-02-23T14:05:28.051Z,10.75
2019-02-23T14:08:30.000Z,10.96
2019-02-23T14:11:38.575Z,10.96
2019-02-23T14:14:47.950Z,11.00
2019-02-23T14:18:02.178Z,11.21
2019-02-23T14:21:22.512Z,11.16
2019-02-23T14:24:50.073Z,11.19
2019-02-23T14:28:16.500Z,11.30
2019-02-23T14:31:32.021Z,11.54
2019-02-23T14:34:33.839Z,11.49
2019-02-23T14:37:29.734Z,11.36
2019-02-23T14:40:53.904Z,11.27
2019-02-23T14:44:06.480Z,11.33
2019-02-23T14:47:22.240Z,11.31
2019-02-23T14:50:24.224Z,11.29
2019-02-23T14:53:43.920Z,11.35
2019-02-23T14:56:59.277Z,11.38
2019-02-23T15:00:13.515Z,11.47
2019-02-23T15:03:26.557Z,11.51
2019-02-23T15:06:25.518Z,11.25
2019-02-23T15:09:54.412Z,11.27
2019-02-23T15:12:56.193Z,11.03
2019-02-23T15:16:22.586Z,10.91
2019-02-23T15:19:37.405Z,10.95
2019-02-23T15:23:00.065Z,10.87
2019-02-23T15:26:08.601Z,10.86
2019-02-23T15:29:17.977Z,10.73
2019-02-23T15:32:26.781Z,10.58
2019-02-23T15:35:57.612Z,10.56
2019-02-23T15:39:14.240Z,10.46
2019-02-23T15:42:11.472Z,10.36
2019-02-23T15:45:21.318Z,10.32
2019-02-23T15:48:43.465Z,10.25
2019-02-23T15:54:33.915Z,10.15
2019-02-23T15:57:17.448Z,9.97
2019-02-23T15:59:50.598Z,9.94
2019-02-23T16:02:23.507Z,9.96
2019-02-23T16:05:11.913Z,9.96
2019-02-23T16:07:45.248Z,9.85
2019-02-23T16:10:19.006Z,9.96
2019-02-23T16:12:52.692Z,9.91
2019-02-23T16:15:25.958Z,9.86
2019-02-23T16:18:00.086Z,9.81
2019-02-23T16:20:42.652Z,9.72
2019-02-23T16:23:15.811Z,9.63
2019-02-23T16:25:51.294Z,9.60
2019-02-23T16:28:24.420Z,9.44
2019-02-23T16:30:57.918Z,9.28
2019-02-23T16:33:31.066Z,9.30
2019-02-23T16:36:13.398Z,9.15
2019-02-23T16:38:46.851Z,9.09
2019-02-23T16:41:20.751Z,8.91
2019-02-23T16:43:53.721Z,8.82
2019-02-23T16:46:27.394Z,8.69
2019-02-23T16:49:00.609Z,8.59
2019-02-23T16:51:33.618Z,8.63
2019-02-23T16:54:06.900Z,8.44
2019-02-23T16:56:40.705Z,8.34
2019-02-23T16:59:13.608Z,8.27
2019-02-23T17:01:47.463Z,8.17
2019-02-23T17:04:21.021Z,8.05
2019-02-23T17:06:56.641Z,7.95
2019-02-23T17:09:39.901Z,7.80
2019-02-23T17:12:22.895Z,7.71
2019-02-23T17:15:05.422Z,7.65
2019-02-23T17:17:39.179Z,7.40
2019-02-23T17:20:11.798Z,7.32
2019-02-23T17:22:44.788Z,7.33
2019-02-23T17:25:17.749Z,7.18
2019-02-23T17:27:50.467Z,6.98
2019-02-23T17:30:23.676Z,6.98
2019-02-23T17:32:57.393Z,6.88
2019-02-23T17:35:30.549Z,6.90
2019-02-23T17:38:15.658Z,6.85
2019-02-23T17:40:41.489Z,6.70
2019-02-23T17:43:14.998Z,6.61
2019-02-23T17:45:48.570Z,6.51
2019-02-23T17:48:23.336Z,6.52
2019-02-23T17:50:56.863Z,6.41
2019-02-23T17:53:30.362Z,6.34
2019-02-23T17:56:03.507Z,6.32
2019-02-23T17:58:48.664Z,6.25
2019-02-23T18:01:22.272Z,6.19
2019-02-23T18:03:56.107Z,6.18
2019-02-23T18:06:30.946Z,6.13
2019-02-23T18:09:05.462Z,6.10
2019-02-23T18:11:49.845Z,6.00
2019-02-23T18:14:32.504Z,5.89
2019-02-23T18:17:07.903Z,5.87
2019-02-23T18:19:50.044Z,5.89
2019-02-23T18:22:23.719Z,5.74
2019-02-23T18:24:57.585Z,5.72
2019-02-23T18:27:40.224Z,5.72
2019-02-23T18:30:14.258Z,5.58
2019-02-23T18:33:03.625Z,5.59
2019-02-23T18:35:36.924Z,5.47
2019-02-23T18:38:10.822Z,5.45
2019-02-23T18:40:59.842Z,5.46
2019-02-23T18:43:33.699Z,5.37
2019-02-23T18:46:07.356Z,5.32
2019-02-23T18:48:40.579Z,5.28
2019-02-23T18:51:13.715Z,5.23
2019-02-23T18:53:47.408Z,5.15
2019-02-23T18:56:20.553Z,5.13
2019-02-23T18:59:05.620Z,5.17
2019-02-23T19:01:39.473Z,4.97
2019-02-23T19:04:13.858Z,5.01
2019-02-23T19:06:48.174Z,4.93
2019-02-23T19:09:21.293Z,4.86
2019-02-23T19:12:04.831Z,4.80
2019-02-23T19:14:38.435Z,4.72
2019-02-23T19:17:12.750Z,4.66
2019-02-23T19:19:48.144Z,4.58
2019-02-23T19:22:30.598Z,4.49
2019-02-23T19:25:05.848Z,4.43
2019-02-23T19:27:39.096Z,4.36
2019-02-23T19:30:12.977Z,4.44
2019-02-23T19:32:46.772Z,4.54
2019-02-23T19:35:30.115Z,4.44
2019-02-23T19:38:04.012Z,4.35
2019-02-23T19:40:48.444Z,4.31
2019-02-23T19:43:31.147Z,4.24
2019-02-23T19:46:04.854Z,4.12
2019-02-23T19:48:47.897Z,4.18
2019-02-23T19:51:37.039Z,4.14
2019-02-23T19:54:19.240Z,4.13
2019-02-23T19:56:52.791Z,4.05
2019-02-23T19:59:26.952Z,3.96
2019-02-23T20:02:09.555Z,3.92
2019-02-23T20:04:42.875Z,3.89
2019-02-23T20:07:16.109Z,3.84
2019-02-23T20:09:49.768Z,3.83
2019-02-23T20:12:24.350Z,3.77
2019-02-23T20:15:06.759Z,3.75
2019-02-23T20:17:40.190Z,3.71
2019-02-23T20:20:13.718Z,3.71
2019-02-23T20:22:47.589Z,3.69
2019-02-23T20:25:21.714Z,3.64
2019-02-23T20:28:07.008Z,3.68
2019-02-23T20:30:49.538Z,3.69
2019-02-23T20:33:23.314Z,3.64
2019-02-23T20:36:08.801Z,3.73
2019-02-23T20:38:52.394Z,3.65
2019-02-23T20:41:30.905Z,3.57
2019-02-23T20:44:04.410Z,3.43
2019-02-23T20:46:37.931Z,3.46
2019-02-23T20:49:11.706Z,3.41
2019-02-23T20:51:45.780Z,3.36
2019-02-23T20:54:20.035Z,3.26
2019-02-23T20:56:54.516Z,3.12
2019-02-23T20:59:29.386Z,3.04
2019-02-23T21:02:04.861Z,2.97
2019-02-23T21:04:39.484Z,2.90
2019-02-23T21:07:16.133Z,3.02
2019-02-23T21:09:50.265Z,2.93
2019-02-23T21:12:25.085Z,2.96
2019-02-23T21:15:00.538Z,2.89
2019-02-23T21:17:34.499Z,2.88
2019-02-23T21:20:08.134Z,2.93
2019-02-23T21:22:42.730Z,2.91
2019-02-23T21:25:16.419Z,2.68
2019-02-23T21:27:51.826Z,2.61
2019-02-23T21:30:25.766Z,2.70
2019-02-23T21:33:00.129Z,2.69
2019-02-23T21:35:35.393Z,2.68
2019-02-23T21:38:09.589Z,2.53
2019-02-23T21:40:44.238Z,2.56
2019-02-23T21:43:18.239Z,2.51
2019-02-23T21:45:53.092Z,2.34
2019-02-23T21:48:26.774Z,2.29
2019-02-23T21:51:01.350Z,2.30
2019-02-23T21:53:36.258Z,2.34
2019-02-23T21:56:18.996Z,2.40
2019-02-23T21:59:04.356Z,2.29
2019-02-23T22:01:38.413Z,2.26
2019-02-23T22:04:11.635Z,2.28
2019-02-23T22:06:45.533Z,2.21
2019-02-23T22:09:20.030Z,2.23
2019-02-23T22:11:53.506Z,2.22
2019-02-23T22:14:27.236Z,2.19
2019-02-23T22:17:00.718Z,2.17
2019-02-23T22:19:33.963Z,2.21
2019-02-23T22:22:16.721Z,2.24
2019-02-23T22:24:59.258Z,2.22
2019-02-23T22:27:32.998Z,2.08
2019-02-23T22:30:07.231Z,2.12
2019-02-23T22:32:40.398Z,1.97
2019-02-23T22:35:13.848Z,2.01
2019-02-23T22:38:02.468Z,2.04
2019-02-23T22:40:36.430Z,1.99
2019-02-23T22:43:18.824Z,2.05
2019-02-23T22:45:52.851Z,1.97
2019-02-23T22:48:41.975Z,1.96
2019-02-23T22:51:24.177Z,2.06
2019-02-23T22:53:57.337Z,1.99
2019-02-23T22:56:31.459Z,1.94
2019-02-23T22:59:05.494Z,1.94
2019-02-23T23:01:47.526Z,2.01
2019-02-23T23:04:21.076Z,1.94
2019-02-23T23:06:54.796Z,1.99
2019-02-23T23:09:28.302Z,2.00
2019-02-23T23:12:01.735Z,2.04
2019-02-23T23:14:35.261Z,2.04
2019-02-23T23:17:08.680Z,2.05
2019-02-23T23:19:41.857Z,2.10
2019-02-23T23:22:24.346Z,2.10
2019-02-23T23:24:57.807Z,2.04
2019-02-23T23:27:31.738Z,2.01
2019-02-23T23:30:14.572Z,2.00
2019-02-23T23:32:57.287Z,2.03
2019-02-23T23:35:31.485Z,1.98
2019-02-23T23:38:05.089Z,1.97
2019-02-23T23:40:38.975Z,2.00
2019-02-23T23:43:12.699Z,2.03
2019-02-23T23:45:48.241Z,2.07
2019-02-23T23:48:21.599Z,2.04
2019-02-23T23:50:55.710Z,1.97
2019-02-23T23:53:38.293Z,1.98
2019-02-23T23:56:12.776Z,1.94
2019-02-23T23:58:45.942Z,2.00
